createdAt,value
2022-10-19T00:00:44.437Z,15.68
2022-10-19T00:03:41.683Z,15.32
2022-10-19T00:06:39.228Z,15.18
2022-10-19T00:09:36.530Z,14.97
2022-10-19T00:12:33.266Z,14.76
2022-10-19T00:15:30.340Z,14.58
2022-10-19T00:18:27.376Z,14.41
2022-10-19T00:21:24.445Z,14.26
2022-10-19T00:24:21.371Z,14.46
2022-10-19T00:27:17.926Z,14.41
2022-10-19T00:30:15.431Z,14.36
2022-10-19T00:33:12.473Z,14.63
2022-10-19T00:36:36.722Z,15.07
2022-10-19T00:39:34.103Z,15.20
2022-10-19T00:42:31.944Z,15.23
2022-10-19T00:45:29.173Z,15.07
2022-10-19T00:48:30.855Z,14.69
2022-10-19T00:51:28.553Z,14.23
2022-10-19T00:54:25.395Z,13.77
2022-10-19T00:57:22.126Z,13.81
2022-10-19T01:00:19.284Z,13.68
2022-10-19T01:03:16.010Z,13.71
2022-10-19T01:06:14.611Z,14.05
2022-10-19T01:09:11.184Z,14.65
2022-10-19T01:12:22.896Z,14.97
2022-10-19T01:15:10.458Z,15.12
2022-10-19T01:18:24.136Z,15.09
2022-10-19T01:21:42.511Z,15.12
2022-10-19T01:24:45.369Z,15.17
2022-10-19T01:28:10.355Z,15.01
2022-10-19T01:31:42.587Z,14.76
2022-10-19T01:35:01.636Z,14.68
2022-10-19T01:38:11.000Z,14.68
2022-10-19T01:41:27.333Z,14.82
2022-10-19T01:44:31.349Z,14.87
2022-10-19T01:48:02.264Z,15.01
2022-10-19T01:51:01.865Z,15.04
2022-10-19T01:54:03.045Z,15.04
2022-10-19T01:57:00.339Z,14.90
2022-10-19T01:59:57.606Z,14.92
2022-10-19T02:02:54.571Z,15.11
2022-10-19T02:05:51.105Z,14.66
2022-10-19T02:08:49.114Z,14.27
2022-10-19T02:11:53.357Z,14.12
2022-10-19T02:14:54.718Z,14.34
2022-10-19T02:17:52.866Z,14.76
2022-10-19T02:20:50.307Z,14.98
2022-10-19T02:23:49.314Z,15.14
2022-10-19T02:26:49.356Z,15.18
2022-10-19T02:29:46.455Z,15.22
2022-10-19T02:32:43.644Z,15.14
2022-10-19T02:35:40.536Z,15.08
2022-10-19T02:38:37.301Z,15.06
2022-10-19T02:42:04.975Z,15.08
2022-10-19T02:45:24.455Z,14.99
2022-10-19T02:48:23.063Z,14.83
2022-10-19T02:51:34.814Z,14.58
2022-10-19T02:54:32.363Z,14.71
2022-10-19T02:57:29.141Z,14.78
2022-10-19T03:00:26.063Z,14.98
2022-10-19T03:03:23.532Z,14.69
2022-10-19T03:06:20.341Z,14.98
2022-10-19T03:09:17.567Z,15.13
2022-10-19T03:12:14.492Z,15.26
2022-10-19T03:15:15.376Z,15.08
2022-10-19T03:18:12.243Z,14.90
2022-10-19T03:21:11.136Z,14.62
2022-10-19T03:24:08.146Z,14.65
2022-10-19T03:27:05.257Z,14.65
2022-10-19T03:30:02.329Z,14.36
2022-10-19T03:32:59.396Z,14.29
2022-10-19T03:36:35.125Z,14.14
2022-10-19T03:39:32.186Z,13.79
2022-10-19T03:42:29.352Z,13.71
2022-10-19T03:45:26.389Z,13.77
2022-10-19T03:48:23.270Z,14.31
2022-10-19T03:51:25.010Z,14.56
2022-10-19T03:54:25.034Z,14.33
2022-10-19T03:57:24.570Z,14.37
2022-10-19T04:00:21.346Z,14.06
2022-10-19T04:03:18.557Z,13.46
2022-10-19T04:06:19.777Z,13.65
2022-10-19T04:09:20.597Z,13.77
2022-10-19T04:12:17.526Z,14.06
2022-10-19T04:15:14.687Z,13.79
2022-10-19T04:18:11.507Z,14.26
2022-10-19T04:21:21.234Z,14.57
2022-10-19T04:24:18.625Z,14.54
2022-10-19T04:27:15.663Z,14.46
2022-10-19T04:30:12.549Z,14.53
2022-10-19T04:33:09.129Z,14.69
2022-10-19T04:36:08.446Z,14.78
2022-10-19T04:39:05.311Z,14.77
2022-10-19T04:42:02.503Z,14.76
2022-10-19T04:44:59.615Z,14.32
2022-10-19T04:47:56.825Z,14.26
2022-10-19T04:50:55.756Z,14.03
2022-10-19T04:53:55.595Z,13.77
2022-10-19T04:56:55.419Z,13.79
2022-10-19T04:59:52.437Z,14.12
2022-10-19T05:02:49.590Z,14.27
2022-10-19T05:05:46.445Z,13.98
2022-10-19T05:08:43.753Z,14.18
2022-10-19T05:11:40.617Z,14.64
2022-10-19T05:14:39.099Z,14.43
2022-10-19T05:17:39.600Z,13.99
2022-10-19T05:20:36.517Z,13.78
2022-10-19T05:26:35.145Z,13.71
2022-10-19T05:29:33.978Z,13.56
2022-10-19T05:32:31.666Z,13.45
2022-10-19T05:35:28.675Z,13.92
2022-10-19T05:38:25.647Z,13.95
2022-10-19T05:41:22.868Z,13.90
2022-10-19T05:44:23.864Z,13.79
2022-10-19T05:47:21.529Z,13.33
2022-10-19T05:50:18.364Z,13.38
2022-10-19T05:53:15.490Z,13.60
2022-10-19T05:56:21.129Z,13.52
2022-10-19T05:59:19.329Z,13.59
2022-10-19T06:02:16.580Z,13.72
2022-10-19T06:05:13.497Z,13.64
2022-10-19T06:08:10.506Z,13.42
2022-10-19T06:11:10.972Z,13.90
2022-10-19T06:14:13.581Z,14.22
2022-10-19T06:17:10.831Z,14.16
2022-10-19T06:20:08.101Z,13.76
2022-10-19T06:23:05.730Z,13.53
2022-10-19T06:26:15.157Z,13.33
2022-10-19T06:29:12.402Z,13.18
2022-10-19T06:32:09.844Z,13.36
2022-10-19T06:35:07.159Z,13.64
2022-10-19T06:38:04.886Z,13.69
2022-10-19T06:41:02.406Z,13.71
2022-10-19T06:43:59.421Z,13.50
2022-10-19T06:46:56.286Z,13.60
2022-10-19T06:49:53.816Z,13.81
2022-10-19T06:52:50.631Z,14.26
2022-10-19T06:55:47.366Z,14.20
2022-10-19T06:58:44.791Z,14.06
2022-10-19T07:01:41.540Z,14.07
2022-10-19T07:04:38.870Z,13.83
2022-10-19T07:07:36.160Z,13.90
2022-10-19T07:10:33.856Z,14.18
2022-10-19T07:13:30.903Z,14.03
2022-10-19T07:16:27.442Z,13.95
2022-10-19T07:19:27.586Z,13.92
2022-10-19T07:22:28.090Z,13.86
2022-10-19T07:25:26.831Z,14.08
2022-10-19T07:28:23.659Z,14.06
2022-10-19T07:31:21.866Z,14.01
2022-10-19T07:34:18.569Z,13.92
2022-10-19T07:37:15.488Z,14.23
2022-10-19T07:40:13.252Z,14.45
2022-10-19T07:43:10.700Z,14.58
2022-10-19T07:46:18.733Z,14.45
2022-10-19T07:49:16.459Z,14.56
2022-10-19T07:52:13.873Z,14.85
2022-10-19T07:55:10.546Z,14.62
2022-10-19T07:58:07.469Z,14.65
2022-10-19T08:01:06.466Z,14.84
2022-10-19T08:07:20.828Z,15.00
2022-10-19T08:10:17.907Z,14.87
2022-10-19T08:13:14.734Z,14.75
2022-10-19T08:16:29.111Z,14.77
2022-10-19T08:19:26.709Z,14.94
2022-10-19T08:22:23.960Z,14.84
2022-10-19T08:25:21.789Z,14.85
2022-10-19T08:28:18.475Z,14.77
2022-10-19T08:31:17.480Z,14.88
2022-10-19T08:34:14.631Z,14.62
2022-10-19T08:37:26.126Z,14.31
2022-10-19T08:40:29.861Z,14.30
2022-10-19T08:43:38.523Z,14.50
2022-10-19T08:46:44.687Z,14.53
2022-10-19T08:49:41.605Z,14.51
2022-10-19T08:52:38.909Z,14.51
2022-10-19T08:56:03.744Z,14.59
2022-10-19T08:59:34.073Z,14.47
2022-10-19T09:02:41.189Z,14.73
2022-10-19T09:05:50.585Z,14.73
2022-10-19T09:08:48.624Z,14.76
2022-10-19T09:11:50.523Z,14.64
2022-10-19T09:14:55.228Z,14.47
2022-10-19T09:17:52.978Z,14.39
2022-10-19T09:20:50.847Z,14.39
2022-10-19T09:24:08.226Z,14.38
2022-10-19T09:27:05.761Z,13.99
2022-10-19T09:30:04.715Z,13.78
2022-10-19T09:33:02.355Z,13.91
2022-10-19T09:36:00.070Z,14.04
2022-10-19T09:38:57.757Z,14.11
2022-10-19T09:41:56.126Z,14.18
2022-10-19T09:44:53.611Z,14.53
2022-10-19T09:47:50.773Z,14.92
2022-10-19T09:50:51.859Z,14.91
2022-10-19T09:53:55.484Z,15.00
2022-10-19T09:56:53.747Z,14.83
2022-10-19T09:59:52.350Z,14.79
2022-10-19T10:02:51.318Z,14.34
2022-10-19T10:05:48.598Z,14.45
2022-10-19T10:08:47.509Z,14.11
2022-10-19T10:11:46.292Z,14.11
2022-10-19T10:14:44.065Z,14.04
2022-10-19T10:17:40.630Z,14.07
2022-10-19T10:20:37.633Z,14.34
2022-10-19T10:23:36.414Z,14.55
2022-10-19T10:26:42.211Z,14.72
2022-10-19T10:29:39.547Z,14.79
2022-10-19T10:32:38.464Z,14.67
2022-10-19T10:35:36.021Z,14.71
2022-10-19T10:38:44.114Z,14.64
2022-10-19T10:41:41.733Z,14.26
2022-10-19T10:44:39.306Z,14.04
2022-10-19T10:47:39.107Z,14.08
2022-10-19T10:50:36.804Z,14.30
2022-10-19T10:53:40.530Z,14.28
2022-10-19T10:56:40.865Z,14.34
2022-10-19T10:59:57.482Z,14.59
2022-10-19T11:02:57.538Z,14.27
2022-10-19T11:05:57.074Z,14.34
2022-10-19T11:09:16.655Z,14.27
2022-10-19T11:12:15.081Z,14.45
2022-10-19T11:15:14.122Z,14.22
2022-10-19T11:18:13.010Z,13.93
2022-10-19T11:21:11.713Z,13.93
2022-10-19T11:24:17.836Z,14.27
2022-10-19T11:27:34.986Z,14.72
2022-10-19T11:30:42.831Z,14.63
2022-10-19T11:36:48.658Z,14.59
2022-10-19T11:40:10.691Z,14.92
2022-10-19T11:43:14.706Z,15.16
2022-10-19T11:46:23.381Z,14.25
2022-10-19T11:49:43.465Z,13.95
2022-10-19T11:52:52.973Z,14.44
2022-10-19T11:56:04.718Z,14.56
2022-10-19T11:59:22.365Z,14.80
2022-10-19T12:02:22.663Z,15.21
2022-10-19T12:05:58.822Z,15.40
2022-10-19T12:09:13.524Z,15.48
2022-10-19T12:12:34.225Z,14.75
2022-10-19T12:15:44.242Z,14.48
2022-10-19T12:18:49.055Z,14.51
2022-10-19T12:21:45.853Z,14.78
2022-10-19T12:24:43.461Z,14.83
2022-10-19T12:27:41.062Z,14.98
2022-10-19T12:30:38.543Z,14.96
2022-10-19T12:33:43.999Z,15.24
2022-10-19T12:36:52.438Z,15.37
2022-10-19T12:39:54.011Z,15.07
2022-10-19T12:43:28.037Z,15.03
2022-10-19T12:46:36.256Z,15.22
2022-10-19T12:49:33.942Z,15.21
2022-10-19T12:52:34.745Z,15.55
2022-10-19T12:55:34.932Z,15.44
2022-10-19T12:58:36.464Z,15.09
2022-10-19T13:01:33.963Z,15.24
2022-10-19T13:04:32.492Z,15.06
2022-10-19T13:07:29.927Z,14.89
2022-10-19T13:10:27.591Z,14.75
2022-10-19T13:13:53.784Z,14.83
2022-10-19T13:17:00.885Z,15.22
2022-10-19T13:20:17.881Z,15.69
2022-10-19T13:23:18.057Z,15.34
2022-10-19T13:26:30.813Z,15.07
2022-10-19T13:29:48.754Z,14.97
2022-10-19T13:32:46.033Z,15.11
2022-10-19T13:35:43.015Z,15.40
2022-10-19T13:39:06.233Z,15.14
2022-10-19T13:42:02.703Z,15.36
2022-10-19T13:45:00.149Z,15.37
2022-10-19T13:48:01.528Z,14.96
2022-10-19T13:51:01.608Z,14.93
2022-10-19T13:54:36.108Z,14.73
2022-10-19T13:57:55.326Z,14.56
2022-10-19T14:01:11.917Z,14.60
2022-10-19T14:04:26.300Z,14.54
2022-10-19T14:07:26.631Z,14.56
2022-10-19T14:10:28.286Z,14.89
2022-10-19T14:13:29.993Z,15.32
2022-10-19T14:16:27.234Z,15.47
2022-10-19T14:19:27.295Z,15.49
2022-10-19T14:22:33.891Z,15.79
2022-10-19T14:25:32.844Z,15.87
2022-10-19T14:28:30.973Z,15.83
2022-10-19T14:31:33.895Z,16.17
2022-10-19T14:34:34.300Z,15.96
2022-10-19T14:37:31.821Z,15.81
2022-10-19T14:40:34.451Z,15.74
2022-10-19T14:43:32.840Z,15.43
2022-10-19T14:46:34.509Z,15.51
2022-10-19T14:49:32.003Z,15.33
2022-10-19T14:52:34.671Z,14.96
2022-10-19T14:55:34.366Z,14.76
2022-10-19T14:58:37.058Z,14.73
2022-10-19T15:01:34.084Z,14.54
2022-10-19T15:04:34.450Z,14.48
2022-10-19T15:07:39.412Z,14.57
2022-10-19T15:10:45.800Z,14.63
2022-10-19T15:13:43.016Z,14.87
2022-10-19T15:16:39.898Z,15.16
2022-10-19T15:19:36.889Z,15.32
2022-10-19T15:22:34.265Z,15.57
2022-10-19T15:25:37.099Z,15.47
2022-10-19T15:28:40.760Z,15.46
2022-10-19T15:31:38.969Z,15.25
2022-10-19T15:34:35.898Z,14.88
2022-10-19T15:37:33.103Z,14.82
2022-10-19T15:40:37.882Z,14.63
2022-10-19T15:43:39.269Z,14.71
2022-10-19T15:46:46.013Z,14.77
2022-10-19T15:49:42.842Z,14.86
2022-10-19T15:52:40.163Z,14.80
2022-10-19T15:55:37.126Z,14.47
2022-10-19T15:58:35.929Z,14.24
2022-10-19T16:01:39.111Z,14.03
2022-10-19T16:04:38.974Z,13.98
2022-10-19T16:07:37.553Z,14.16
2022-10-19T16:10:34.906Z,14.31
2022-10-19T16:13:32.370Z,14.36
2022-10-19T16:16:33.222Z,14.18
2022-10-19T16:19:30.579Z,13.82
2022-10-19T16:22:28.086Z,13.95
2022-10-19T16:25:25.178Z,14.05
2022-10-19T16:28:23.677Z,14.38
2022-10-19T16:31:21.041Z,14.22
2022-10-19T16:34:18.025Z,14.06
2022-10-19T16:37:14.943Z,14.05
2022-10-19T16:40:11.951Z,14.09
2022-10-19T16:43:09.025Z,14.08
2022-10-19T16:46:06.235Z,14.05
2022-10-19T16:49:03.165Z,14.12
2022-10-19T16:52:01.629Z,14.12
2022-10-19T16:54:59.729Z,13.99
2022-10-19T16:57:57.195Z,13.58
2022-10-19T17:00:56.236Z,13.32
2022-10-19T17:03:53.307Z,13.12
2022-10-19T17:06:50.128Z,13.16
2022-10-19T17:09:49.794Z,13.28
2022-10-19T17:12:49.813Z,13.27
2022-10-19T17:15:47.360Z,13.29
2022-10-19T17:18:44.087Z,13.38
2022-10-19T17:21:42.500Z,13.46
2022-10-19T17:24:40.178Z,13.49
2022-10-19T17:27:36.951Z,13.52
2022-10-19T17:30:34.011Z,13.46
2022-10-19T17:33:31.101Z,13.17
2022-10-19T17:36:29.908Z,13.09
2022-10-19T17:39:29.079Z,13.04
2022-10-19T17:42:27.023Z,12.67
2022-10-19T17:45:24.017Z,12.73
2022-10-19T17:48:21.078Z,12.75
2022-10-19T17:51:27.244Z,12.71
2022-10-19T17:54:24.081Z,12.45
2022-10-19T17:57:20.940Z,12.31
2022-10-19T18:00:18.001Z,12.29
2022-10-19T18:03:14.775Z,12.36
2022-10-19T18:06:20.830Z,12.58
2022-10-19T18:09:18.108Z,12.77
2022-10-19T18:12:15.165Z,12.79
2022-10-19T18:15:12.236Z,12.94
2022-10-19T18:18:09.069Z,13.03
2022-10-19T18:21:07.104Z,12.87
2022-10-19T18:24:04.237Z,12.72
2022-10-19T18:27:01.023Z,12.65
2022-10-19T18:29:57.957Z,12.49
2022-10-19T18:32:54.732Z,12.45
2022-10-19T18:35:52.650Z,12.50
2022-10-19T18:38:53.627Z,12.13
2022-10-19T18:41:54.594Z,11.97
2022-10-19T18:44:52.056Z,11.90
2022-10-19T18:47:48.858Z,11.84
2022-10-19T18:50:46.518Z,11.75
2022-10-19T18:53:44.419Z,11.49
2022-10-19T18:56:41.133Z,11.40
2022-10-19T18:59:38.271Z,11.42
2022-10-19T19:02:45.772Z,11.54
2022-10-19T19:05:44.024Z,11.42
2022-10-19T19:08:41.205Z,11.48
2022-10-19T19:11:39.283Z,11.49
2022-10-19T19:14:35.940Z,11.40
2022-10-19T19:17:33.561Z,11.39
2022-10-19T19:20:31.455Z,11.44
2022-10-19T19:23:28.377Z,11.46
2022-10-19T19:26:26.583Z,11.35
2022-10-19T19:29:24.707Z,11.39
2022-10-19T19:32:22.644Z,11.49
2022-10-19T19:35:21.515Z,11.56
2022-10-19T19:38:19.225Z,11.75
2022-10-19T19:41:16.634Z,11.64
2022-10-19T19:44:14.420Z,11.63
2022-10-19T19:47:11.332Z,11.64
2022-10-19T19:50:09.061Z,11.37
2022-10-19T19:53:06.100Z,11.25
2022-10-19T19:56:04.049Z,11.22
2022-10-19T19:59:03.770Z,11.24
2022-10-19T20:02:01.872Z,11.33
2022-10-19T20:04:59.566Z,11.33
2022-10-19T20:07:57.397Z,11.30
2022-10-19T20:10:53.993Z,11.32
2022-10-19T20:13:51.406Z,11.21
2022-10-19T20:16:48.330Z,11.30
2022-10-19T20:19:45.130Z,11.25
2022-10-19T20:22:46.194Z,11.27
2022-10-19T20:25:43.385Z,11.29
2022-10-19T20:28:40.346Z,11.32
2022-10-19T20:31:40.544Z,11.35
2022-10-19T20:34:38.457Z,11.23
2022-10-19T20:37:36.275Z,10.99
2022-10-19T20:40:33.576Z,10.98
2022-10-19T20:43:31.395Z,10.91
2022-10-19T20:46:29.337Z,10.96
2022-10-19T20:49:26.299Z,10.93
2022-10-19T20:52:23.371Z,11.00
2022-10-19T20:55:22.093Z,10.97
2022-10-19T20:58:19.183Z,11.11
2022-10-19T21:01:19.506Z,11.06
2022-10-19T21:04:16.187Z,10.98
2022-10-19T21:07:13.621Z,10.72
2022-10-19T21:10:11.486Z,10.71
2022-10-19T21:13:08.626Z,10.49
2022-10-19T21:16:17.793Z,10.49
2022-10-19T21:19:17.033Z,10.43
2022-10-19T21:22:14.067Z,10.48
2022-10-19T21:25:10.990Z,10.58
2022-10-19T21:28:08.502Z,10.55
2022-10-19T21:31:08.734Z,10.62
2022-10-19T21:34:07.251Z,10.66
2022-10-19T21:37:04.291Z,10.86
2022-10-19T21:40:01.531Z,10.88
2022-10-19T21:42:58.654Z,10.85
2022-10-19T21:45:56.318Z,10.80
2022-10-19T21:48:54.041Z,10.90
2022-10-19T21:51:54.528Z,11.07
2022-10-19T21:54:51.612Z,10.75
2022-10-19T21:57:49.104Z,10.68
2022-10-19T22:00:46.089Z,10.58
2022-10-19T22:03:43.527Z,10.28
2022-10-19T22:06:40.574Z,10.10
2022-10-19T22:09:38.445Z,10.11
2022-10-19T22:12:35.653Z,10.12
2022-10-19T22:15:37.428Z,10.16
2022-10-19T22:18:34.581Z,10.18
2022-10-19T22:21:31.575Z,10.24
2022-10-19T22:24:28.249Z,10.33
2022-10-19T22:27:25.062Z,10.34
2022-10-19T22:30:22.474Z,10.39
2022-10-19T22:33:19.328Z,10.38
2022-10-19T22:36:16.474Z,10.54
2022-10-19T22:39:13.709Z,10.70
2022-10-19T22:42:11.366Z,10.95
2022-10-19T22:45:08.546Z,10.82
2022-10-19T22:48:05.394Z,10.77
2022-10-19T22:51:02.578Z,10.36
2022-10-19T22:53:59.514Z,10.12
2022-10-19T22:56:56.642Z,10.16
2022-10-19T22:59:53.429Z,10.14
2022-10-19T23:02:50.583Z,10.15
2022-10-19T23:05:47.601Z,10.18
2022-10-19T23:08:44.557Z,10.10
2022-10-19T23:11:41.397Z,9.88
2022-10-19T23:14:38.475Z,9.97
2022-10-19T23:17:35.546Z,10.00
2022-10-19T23:20:33.209Z,9.96
2022-10-19T23:23:30.834Z,9.86
2022-10-19T23:26:28.476Z,9.76
2022-10-19T23:29:25.199Z,9.64
2022-10-19T23:32:21.997Z,9.66
2022-10-19T23:35:19.307Z,9.74
2022-10-19T23:38:16.402Z,9.60
2022-10-19T23:41:13.126Z,9.49
2022-10-19T23:44:10.707Z,9.43
2022-10-19T23:47:07.105Z,9.28
2022-10-19T23:50:04.726Z,9.30
2022-10-19T23:53:01.811Z,9.26
2022-10-19T23:56:03.969Z,9.34
2022-10-19T23:59:01.307Z,9.40
